createdAt,value
2019-03-13T00:00:11.831Z,92.46
2019-03-13T00:01:11.820Z,92.40
2019-03-13T00:02:11.848Z,92.50
2019-03-13T00:03:23.350Z,92.61
2019-03-13T00:04:11.794Z,92.82
2019-03-13T00:05:19.065Z,92.93
2019-03-13T00:06:11.768Z,93.21
2019-03-13T00:07:11.767Z,92.46
2019-03-13T00:08:11.747Z,93.25
2019-03-13T00:09:11.752Z,92.46
2019-03-13T00:10:11.765Z,92.72
2019-03-13T00:11:11.713Z,92.18
2019-03-13T00:12:11.709Z,92.18
2019-03-13T00:13:11.698Z,92.08
2019-03-13T00:14:11.691Z,92.46
2019-03-13T00:15:11.678Z,92.50
2019-03-13T00:16:11.711Z,92.46
2019-03-13T00:17:11.661Z,92.14
2019-03-13T00:18:11.648Z,92.18
2019-03-13T00:19:11.641Z,92.72
2019-03-13T00:20:11.622Z,92.57
2019-03-13T00:21:11.612Z,92.14
2019-03-13T00:22:11.642Z,92.08
2019-03-13T00:23:11.601Z,92.50
2019-03-13T00:24:11.582Z,92.50
2019-03-13T00:25:11.585Z,92.14
2019-03-13T00:26:11.561Z,92.03
2019-03-13T00:27:11.588Z,92.57
2019-03-13T00:28:11.580Z,92.35
2019-03-13T00:29:11.533Z,92.25
2019-03-13T00:30:11.539Z,91.99
2019-03-13T00:31:11.507Z,92.21
2019-03-13T00:32:11.500Z,91.99
2019-03-13T00:33:11.487Z,91.67
2019-03-13T00:34:11.502Z,91.78
2019-03-13T00:35:11.486Z,92.63
2019-03-13T00:36:21.488Z,91.89
2019-03-13T00:37:11.445Z,92.32
2019-03-13T00:38:11.442Z,91.99
2019-03-13T00:39:11.425Z,91.99
2019-03-13T00:40:11.430Z,92.10
2019-03-13T00:41:11.412Z,91.78
2019-03-13T00:42:11.424Z,91.78
2019-03-13T00:43:11.387Z,91.46
2019-03-13T00:44:11.376Z,91.29
2019-03-13T00:45:11.445Z,91.61
2019-03-13T00:46:11.359Z,91.82
2019-03-13T00:47:11.344Z,92.03
2019-03-13T00:48:11.337Z,91.93
2019-03-13T00:49:11.327Z,91.82
2019-03-13T00:50:11.336Z,92.08
2019-03-13T00:51:11.340Z,91.75
2019-03-13T00:52:11.298Z,92.18
2019-03-13T00:53:11.284Z,92.29
2019-03-13T00:54:11.270Z,92.29
2019-03-13T00:55:11.264Z,92.29
2019-03-13T00:56:11.249Z,92.40
2019-03-13T00:57:11.287Z,92.68
2019-03-13T00:58:11.228Z,92.40
2019-03-13T00:59:11.224Z,92.25
2019-03-13T01:00:11.212Z,92.08
2019-03-13T01:01:11.286Z,92.29
2019-03-13T01:02:11.189Z,92.08
2019-03-13T01:03:11.199Z,92.18
2019-03-13T01:04:11.207Z,92.50
2019-03-13T01:05:11.165Z,92.18
2019-03-13T01:06:11.162Z,92.18
2019-03-13T01:07:21.859Z,92.22
2019-03-13T01:08:11.124Z,92.22
2019-03-13T01:09:11.140Z,92.12
2019-03-13T01:10:11.105Z,92.01
2019-03-13T01:11:11.099Z,92.27
2019-03-13T01:12:11.084Z,92.37
2019-03-13T01:13:11.080Z,91.94
2019-03-13T01:14:11.093Z,92.27
2019-03-13T01:15:11.092Z,92.58
2019-03-13T01:16:11.044Z,92.37
2019-03-13T01:17:11.069Z,92.16
2019-03-13T01:18:11.020Z,92.37
2019-03-13T01:19:11.010Z,92.30
2019-03-13T01:20:10.999Z,92.30
2019-03-13T01:21:11.033Z,92.80
2019-03-13T01:22:11.001Z,92.30
2019-03-13T01:23:10.974Z,92.41
2019-03-13T01:24:10.958Z,93.23
2019-03-13T01:25:10.952Z,93.76
2019-03-13T01:26:10.947Z,92.91
2019-03-13T01:27:10.937Z,92.69
2019-03-13T01:28:11.040Z,93.12
2019-03-13T01:29:10.906Z,92.84
2019-03-13T01:30:10.897Z,92.63
2019-03-13T01:31:10.892Z,92.58
2019-03-13T01:32:10.896Z,93.12
2019-03-13T01:33:10.872Z,93.97
2019-03-13T01:34:10.888Z,93.23
2019-03-13T01:35:10.848Z,92.91
2019-03-13T01:36:10.837Z,93.12
2019-03-13T01:37:10.829Z,92.80
2019-03-13T01:38:21.462Z,92.58
2019-03-13T01:39:10.807Z,92.69
2019-03-13T01:40:10.796Z,92.69
2019-03-13T01:41:10.791Z,92.27
2019-03-13T01:42:10.775Z,92.27
2019-03-13T01:43:10.801Z,92.48
2019-03-13T01:44:10.792Z,92.27
2019-03-13T01:45:10.748Z,92.20
2019-03-13T01:46:10.733Z,92.03
2019-03-13T01:47:10.722Z,92.03
2019-03-13T01:48:10.713Z,91.92
2019-03-13T01:49:10.721Z,92.67
2019-03-13T01:50:10.724Z,92.24
2019-03-13T01:51:10.679Z,92.35
2019-03-13T01:52:10.705Z,92.77
2019-03-13T01:53:10.667Z,93.16
2019-03-13T01:54:10.649Z,93.91
2019-03-13T01:55:10.647Z,93.05
2019-03-13T01:56:10.665Z,92.94
2019-03-13T01:57:10.645Z,92.94
2019-03-13T01:58:10.611Z,92.94
2019-03-13T01:59:10.606Z,93.27
2019-03-13T02:00:10.592Z,92.35
2019-03-13T02:01:10.577Z,92.41
2019-03-13T02:02:10.588Z,92.67
2019-03-13T02:03:10.587Z,92.35
2019-03-13T02:04:10.548Z,92.41
2019-03-13T02:05:10.540Z,92.24
2019-03-13T02:06:10.532Z,92.29
2019-03-13T02:07:10.516Z,92.29
2019-03-13T02:08:10.654Z,92.07
2019-03-13T02:09:21.105Z,92.18
2019-03-13T02:10:10.483Z,93.35
2019-03-13T02:11:10.477Z,92.71
2019-03-13T02:12:11.438Z,92.50
2019-03-13T02:13:10.451Z,93.57
2019-03-13T02:14:10.451Z,92.67
2019-03-13T02:15:10.436Z,92.60
2019-03-13T02:16:10.421Z,92.93
2019-03-13T02:17:10.419Z,92.99
2019-03-13T02:18:10.399Z,93.46
2019-03-13T02:19:10.434Z,93.46
2019-03-13T02:20:10.381Z,93.46
2019-03-13T02:21:10.409Z,93.24
2019-03-13T02:22:10.362Z,93.67
2019-03-13T02:23:10.351Z,93.35
2019-03-13T02:24:10.373Z,93.03
2019-03-13T02:25:10.342Z,92.96
2019-03-13T02:26:10.318Z,93.18
2019-03-13T02:27:10.311Z,93.57
2019-03-13T02:28:10.301Z,93.39
2019-03-13T02:29:10.318Z,93.39
2019-03-13T02:30:10.282Z,93.39
2019-03-13T02:31:10.285Z,93.39
2019-03-13T02:32:10.254Z,93.39
2019-03-13T02:33:10.251Z,94.24
2019-03-13T02:34:10.240Z,94.14
2019-03-13T02:35:10.962Z,94.03
2019-03-13T02:36:10.223Z,93.71
2019-03-13T02:37:10.273Z,93.82
2019-03-13T02:38:10.193Z,93.93
2019-03-13T02:39:10.190Z,93.82
2019-03-13T02:40:20.716Z,93.50
2019-03-13T02:41:10.222Z,93.93
2019-03-13T02:42:10.160Z,93.50
2019-03-13T02:43:10.188Z,93.39
2019-03-13T02:44:10.147Z,93.39
2019-03-13T02:45:10.125Z,93.33
2019-03-13T02:46:10.113Z,93.43
2019-03-13T02:47:10.105Z,93.97
2019-03-13T02:48:10.099Z,94.07
2019-03-13T02:49:10.108Z,93.65
2019-03-13T02:50:10.072Z,93.33
2019-03-13T02:51:10.067Z,93.76
2019-03-13T02:52:10.055Z,93.97
2019-03-13T02:53:10.042Z,94.18
2019-03-13T02:54:10.030Z,93.76
2019-03-13T02:55:10.060Z,93.97
2019-03-13T02:56:10.009Z,93.97
2019-03-13T02:57:10.003Z,94.07
2019-03-13T02:58:09.991Z,94.07
2019-03-13T02:59:09.981Z,93.50
2019-03-13T03:00:09.993Z,93.33
2019-03-13T03:01:10.008Z,92.58
2019-03-13T03:02:09.950Z,91.94
2019-03-13T03:03:09.938Z,90.44
2019-03-13T03:04:09.951Z,90.16
2019-03-13T03:05:09.919Z,90.59
2019-03-13T03:06:09.999Z,90.73
2019-03-13T03:07:12.880Z,91.49
2019-03-13T03:08:09.894Z,91.98
2019-03-13T03:09:09.932Z,92.02
2019-03-13T03:10:09.867Z,92.55
2019-03-13T03:11:20.635Z,92.45
2019-03-13T03:12:09.844Z,92.41
2019-03-13T03:13:09.878Z,92.45
2019-03-13T03:14:09.830Z,92.13
2019-03-13T03:15:09.813Z,92.55
2019-03-13T03:16:09.836Z,92.98
2019-03-13T03:17:09.797Z,92.66
2019-03-13T03:18:09.786Z,92.88
2019-03-13T03:19:09.812Z,92.98
2019-03-13T03:20:09.795Z,92.77
2019-03-13T03:21:09.753Z,92.45
2019-03-13T03:22:09.753Z,93.41
2019-03-13T03:23:09.733Z,93.09
2019-03-13T03:24:09.723Z,92.45
2019-03-13T03:25:09.750Z,92.34
2019-03-13T03:26:09.710Z,92.27
2019-03-13T03:27:09.727Z,91.96
2019-03-13T03:28:09.686Z,92.10
2019-03-13T03:29:09.678Z,91.85
2019-03-13T03:30:09.666Z,92.49
2019-03-13T03:31:09.698Z,92.60
2019-03-13T03:32:09.648Z,92.49
2019-03-13T03:33:09.670Z,92.17
2019-03-13T03:34:09.626Z,92.49
2019-03-13T03:35:09.644Z,92.38
2019-03-13T03:36:09.606Z,92.49
2019-03-13T03:37:09.696Z,92.98
2019-03-13T03:38:09.583Z,92.55
2019-03-13T03:39:09.594Z,92.77
2019-03-13T03:40:09.573Z,92.77
2019-03-13T03:41:09.551Z,92.45
2019-03-13T03:42:20.041Z,92.23
2019-03-13T03:43:09.533Z,92.06
2019-03-13T03:44:09.526Z,91.31
2019-03-13T03:45:09.521Z,90.67
2019-03-13T03:46:09.508Z,90.67
2019-03-13T03:47:09.495Z,90.99
2019-03-13T03:48:09.546Z,90.60
2019-03-13T03:49:09.480Z,90.88
2019-03-13T03:50:09.466Z,91.46
2019-03-13T03:51:09.498Z,91.46
2019-03-13T03:52:09.447Z,92.21
2019-03-13T03:53:09.438Z,91.99
2019-03-13T03:54:09.461Z,91.78
2019-03-13T03:55:09.412Z,91.99
2019-03-13T03:56:09.440Z,91.99
2019-03-13T03:57:09.398Z,91.96
2019-03-13T03:58:09.384Z,91.74
2019-03-13T03:59:09.373Z,91.46
2019-03-13T04:00:09.386Z,91.14
2019-03-13T04:01:09.366Z,90.88
2019-03-13T04:02:09.374Z,91.03
2019-03-13T04:03:09.335Z,91.74
2019-03-13T04:04:10.000Z,92.53
2019-03-13T04:05:09.316Z,92.10
2019-03-13T04:06:09.344Z,91.89
2019-03-13T04:07:09.292Z,92.10
2019-03-13T04:08:09.317Z,91.61
2019-03-13T04:09:09.271Z,92.21
2019-03-13T04:10:09.262Z,92.74
2019-03-13T04:11:09.255Z,92.81
2019-03-13T04:12:09.282Z,92.91
2019-03-13T04:13:19.651Z,92.21
2019-03-13T04:14:09.222Z,91.67
2019-03-13T04:15:09.217Z,91.99
2019-03-13T04:16:09.218Z,91.56
2019-03-13T04:17:09.196Z,92.03
2019-03-13T04:18:09.212Z,91.78
2019-03-13T04:19:09.176Z,92.14
2019-03-13T04:20:09.174Z,92.57
2019-03-13T04:21:09.172Z,92.57
2019-03-13T04:22:09.143Z,92.36
2019-03-13T04:23:09.126Z,92.79
2019-03-13T04:24:09.641Z,92.57
2019-03-13T04:25:09.109Z,92.25
2019-03-13T04:26:12.545Z,91.86
2019-03-13T04:27:09.133Z,92.03
2019-03-13T04:28:09.076Z,91.86
2019-03-13T04:29:09.226Z,92.18
2019-03-13T04:30:09.076Z,91.75
2019-03-13T04:31:09.044Z,92.50
2019-03-13T04:32:09.036Z,92.79
2019-03-13T04:33:09.029Z,92.57
2019-03-13T04:34:09.023Z,92.36
2019-03-13T04:35:09.054Z,92.79
2019-03-13T04:36:09.033Z,92.36
2019-03-13T04:37:08.993Z,92.18
2019-03-13T04:38:08.978Z,91.93
2019-03-13T04:39:08.967Z,92.50
2019-03-13T04:40:08.954Z,91.93
2019-03-13T04:41:08.984Z,91.82
2019-03-13T04:42:08.982Z,91.97
2019-03-13T04:43:08.930Z,91.82
2019-03-13T04:44:19.887Z,91.82
2019-03-13T04:45:16.407Z,92.03
2019-03-13T04:46:08.900Z,92.08
2019-03-13T04:47:09.010Z,92.14
2019-03-13T04:48:08.890Z,92.25
2019-03-13T04:49:08.871Z,92.57
2019-03-13T04:50:08.867Z,92.64
2019-03-13T04:51:08.842Z,92.42
2019-03-13T04:52:08.834Z,92.42
2019-03-13T04:53:08.831Z,91.78
2019-03-13T04:54:08.856Z,91.56
2019-03-13T04:55:08.809Z,91.46
2019-03-13T04:56:08.796Z,90.71
2019-03-13T04:57:08.792Z,91.14
2019-03-13T04:58:08.781Z,91.35
2019-03-13T04:59:08.772Z,92.06
2019-03-13T05:00:08.790Z,91.67
2019-03-13T05:01:08.744Z,92.17
2019-03-13T05:02:08.738Z,92.27
2019-03-13T05:03:08.728Z,91.74
2019-03-13T05:04:08.715Z,91.91
2019-03-13T05:05:08.709Z,91.91
2019-03-13T05:06:08.733Z,91.27
2019-03-13T05:07:08.687Z,90.62
2019-03-13T05:08:08.706Z,90.31
2019-03-13T05:09:08.663Z,89.28
2019-03-13T05:10:08.655Z,88.42
2019-03-13T05:11:08.695Z,88.10
2019-03-13T05:12:08.678Z,88.35
2019-03-13T05:13:08.718Z,88.42
2019-03-13T05:14:08.615Z,89.28
2019-03-13T05:15:08.603Z,89.17
2019-03-13T05:16:20.106Z,89.70
2019-03-13T05:17:08.583Z,89.92
2019-03-13T05:18:08.578Z,90.45
2019-03-13T05:19:08.568Z,90.31
2019-03-13T05:20:08.549Z,90.20
2019-03-13T05:21:08.543Z,89.67
2019-03-13T05:22:08.560Z,89.24
2019-03-13T05:23:08.544Z,89.24
2019-03-13T05:24:08.509Z,88.81
2019-03-13T05:25:08.535Z,88.38
2019-03-13T05:26:08.496Z,87.85
2019-03-13T05:27:08.481Z,88.59
2019-03-13T05:28:08.475Z,88.38
2019-03-13T05:29:08.497Z,88.77
2019-03-13T05:30:08.473Z,89.31
2019-03-13T05:31:08.437Z,88.95
2019-03-13T05:32:08.432Z,89.31
2019-03-13T05:33:08.429Z,88.95
2019-03-13T05:34:08.414Z,88.30
2019-03-13T05:35:08.438Z,88.20
2019-03-13T05:36:08.429Z,88.09
2019-03-13T05:37:08.382Z,87.98
2019-03-13T05:38:08.374Z,87.55
2019-03-13T05:39:08.367Z,87.55
2019-03-13T05:40:08.408Z,87.45
2019-03-13T05:41:08.375Z,88.30
2019-03-13T05:42:08.326Z,88.69
2019-03-13T05:43:08.316Z,88.15
2019-03-13T05:44:08.305Z,88.37
2019-03-13T05:45:08.605Z,88.69
2019-03-13T05:46:08.286Z,88.65
2019-03-13T05:47:20.130Z,88.87
2019-03-13T05:48:08.267Z,88.87
2019-03-13T05:49:08.251Z,88.33
2019-03-13T05:50:08.249Z,88.61
2019-03-13T05:51:08.236Z,88.08
2019-03-13T05:52:08.220Z,87.65
2019-03-13T05:53:08.249Z,88.08
2019-03-13T05:54:08.198Z,88.40
2019-03-13T05:55:08.197Z,88.08
2019-03-13T05:56:08.178Z,87.65
2019-03-13T05:57:08.166Z,87.82
2019-03-13T05:58:08.165Z,87.93
2019-03-13T05:59:08.168Z,87.82
2019-03-13T06:00:08.138Z,87.61
2019-03-13T06:01:08.126Z,88.25
2019-03-13T06:02:08.120Z,87.57
2019-03-13T06:03:08.105Z,88.21
2019-03-13T06:04:08.109Z,87.46
2019-03-13T06:05:08.123Z,87.46
2019-03-13T06:06:08.084Z,87.15
2019-03-13T06:07:08.070Z,87.89
2019-03-13T06:08:08.056Z,87.36
2019-03-13T06:09:08.046Z,86.57
2019-03-13T06:10:08.044Z,86.57
2019-03-13T06:11:08.045Z,86.57
2019-03-13T06:12:08.011Z,86.79
2019-03-13T06:13:08.005Z,86.47
2019-03-13T06:14:07.996Z,86.47
2019-03-13T06:15:08.001Z,86.36
2019-03-13T06:16:07.980Z,86.32
2019-03-13T06:17:07.982Z,85.79
2019-03-13T06:18:18.026Z,86.47
2019-03-13T06:19:07.948Z,85.68
2019-03-13T06:20:10.630Z,85.58
2019-03-13T06:21:07.921Z,85.47
2019-03-13T06:22:07.914Z,85.47
2019-03-13T06:23:07.941Z,86.00
2019-03-13T06:24:07.895Z,85.36
2019-03-13T06:25:07.919Z,85.58
2019-03-13T06:26:07.871Z,85.47
2019-03-13T06:27:07.858Z,85.58
2019-03-13T06:28:07.850Z,85.04
2019-03-13T06:29:07.847Z,85.25
2019-03-13T06:30:07.830Z,85.32
2019-03-13T06:31:07.825Z,84.69
2019-03-13T06:32:07.811Z,84.69
2019-03-13T06:33:07.795Z,85.00
2019-03-13T06:34:07.830Z,84.01
2019-03-13T06:35:07.776Z,83.48
2019-03-13T06:36:07.773Z,83.69
2019-03-13T06:37:07.760Z,83.69
2019-03-13T06:38:07.781Z,83.37
2019-03-13T06:39:07.734Z,83.05
2019-03-13T06:40:07.762Z,82.59
2019-03-13T06:41:07.719Z,82.90
2019-03-13T06:42:07.708Z,82.94
2019-03-13T06:43:07.696Z,82.59
2019-03-13T06:44:07.686Z,82.48
2019-03-13T06:45:07.682Z,82.59
2019-03-13T06:46:07.675Z,83.33
2019-03-13T06:47:07.650Z,83.51
2019-03-13T06:48:07.640Z,83.12
2019-03-13T06:49:17.964Z,82.90
2019-03-13T06:50:07.619Z,83.19
2019-03-13T06:51:07.631Z,83.83
2019-03-13T06:52:07.602Z,83.40
2019-03-13T06:53:07.590Z,83.29
2019-03-13T06:54:07.591Z,83.04
2019-03-13T06:55:07.643Z,82.05
2019-03-13T06:56:07.561Z,82.16
2019-03-13T06:57:07.578Z,82.37
2019-03-13T06:58:07.560Z,82.62
2019-03-13T06:59:07.527Z,82.16
2019-03-13T07:00:07.524Z,82.58
2019-03-13T07:01:07.506Z,82.05
2019-03-13T07:02:07.536Z,81.73
2019-03-13T07:03:07.529Z,81.95
2019-03-13T07:04:07.481Z,81.52
2019-03-13T07:05:07.470Z,81.48
2019-03-13T07:06:07.463Z,80.52
2019-03-13T07:07:07.444Z,80.49
2019-03-13T07:08:07.439Z,80.28
2019-03-13T07:09:07.440Z,80.49
2019-03-13T07:10:07.418Z,80.60
2019-03-13T07:11:07.408Z,80.49
2019-03-13T07:12:07.430Z,80.35
2019-03-13T07:13:07.389Z,79.82
2019-03-13T07:14:07.374Z,79.93
2019-03-13T07:15:07.413Z,79.46
2019-03-13T07:16:07.357Z,79.04
2019-03-13T07:17:07.345Z,79.36
2019-03-13T07:18:07.335Z,79.32
2019-03-13T07:19:07.319Z,78.58
2019-03-13T07:20:18.164Z,78.26
2019-03-13T07:21:07.316Z,78.26
2019-03-13T07:22:07.288Z,78.02
2019-03-13T07:23:07.289Z,78.12
2019-03-13T07:24:07.273Z,78.33
2019-03-13T07:25:07.262Z,78.97
2019-03-13T07:26:07.286Z,77.91
2019-03-13T07:27:07.241Z,77.06
2019-03-13T07:28:07.245Z,78.44
2019-03-13T07:29:11.985Z,78.30
2019-03-13T07:30:08.209Z,77.45
2019-03-13T07:31:07.199Z,77.94
2019-03-13T07:32:07.225Z,77.34
2019-03-13T07:33:07.199Z,77.73
2019-03-13T07:34:07.260Z,76.89
2019-03-13T07:35:07.160Z,76.21
2019-03-13T07:36:07.151Z,75.87
2019-03-13T07:37:07.135Z,73.69
2019-03-13T07:38:07.136Z,71.37
2019-03-13T07:39:07.126Z,69.17
2019-03-13T07:40:07.108Z,67.85
2019-03-13T07:41:07.111Z,66.00
2019-03-13T07:42:07.087Z,64.54
2019-03-13T07:43:07.114Z,61.52
2019-03-13T07:44:07.063Z,59.14
2019-03-13T07:45:07.059Z,60.19
2019-03-13T07:46:07.041Z,62.87
2019-03-13T07:47:07.032Z,63.90
2019-03-13T07:48:07.022Z,63.60
2019-03-13T07:49:07.026Z,61.31
2019-03-13T07:50:14.571Z,59.71
2019-03-13T07:51:06.985Z,59.06
2019-03-13T07:52:06.973Z,59.19
2019-03-13T07:53:06.966Z,59.71
2019-03-13T07:54:06.949Z,58.64
2019-03-13T07:55:06.982Z,58.58
2019-03-13T07:56:06.938Z,58.17
2019-03-13T07:57:06.929Z,56.91
2019-03-13T07:58:06.908Z,57.12
2019-03-13T07:59:06.895Z,56.78
2019-03-13T08:00:06.887Z,56.67
2019-03-13T08:01:06.919Z,56.88
2019-03-13T08:02:06.880Z,56.23
2019-03-13T08:03:06.879Z,57.98
2019-03-13T08:04:06.883Z,58.17
2019-03-13T08:05:06.835Z,59.31
2019-03-13T08:06:06.833Z,58.35
2019-03-13T08:07:06.850Z,57.07
2019-03-13T08:08:06.812Z,56.99
2019-03-13T08:09:06.788Z,58.40
2019-03-13T08:10:06.775Z,58.84
2019-03-13T08:11:06.767Z,59.06
2019-03-13T08:12:06.753Z,59.50
2019-03-13T08:13:06.794Z,59.10
2019-03-13T08:14:06.735Z,56.60
2019-03-13T08:15:06.720Z,55.21
2019-03-13T08:16:06.712Z,55.66
2019-03-13T08:17:06.716Z,56.10
2019-03-13T08:18:06.688Z,57.28
2019-03-13T08:19:06.720Z,58.76
2019-03-13T08:20:06.669Z,58.61
2019-03-13T08:21:19.111Z,59.00
2019-03-13T08:22:06.643Z,59.87
2019-03-13T08:23:06.631Z,60.84
2019-03-13T08:24:06.622Z,60.94
2019-03-13T08:25:08.064Z,61.82
2019-03-13T08:26:06.606Z,62.70
2019-03-13T08:27:06.585Z,62.46
2019-03-13T08:28:06.581Z,61.63
2019-03-13T08:29:06.566Z,61.70
2019-03-13T08:30:06.607Z,61.49
2019-03-13T08:31:06.567Z,61.80
2019-03-13T08:32:06.539Z,60.76
2019-03-13T08:33:06.522Z,60.63
2019-03-13T08:34:06.514Z,60.36
2019-03-13T08:35:06.511Z,58.87
2019-03-13T08:36:06.502Z,58.24
2019-03-13T08:37:06.519Z,58.42
2019-03-13T08:38:06.472Z,56.31
2019-03-13T08:39:06.461Z,54.88
2019-03-13T08:40:06.542Z,53.99
2019-03-13T08:41:06.437Z,52.80
2019-03-13T08:42:06.423Z,51.40
2019-03-13T08:43:06.711Z,50.48
2019-03-13T08:44:06.407Z,49.46
2019-03-13T08:45:06.396Z,46.71
2019-03-13T08:46:06.386Z,47.13
2019-03-13T08:47:06.377Z,50.13
2019-03-13T08:48:06.361Z,50.97
2019-03-13T08:49:06.391Z,51.26
2019-03-13T08:50:06.339Z,52.25
2019-03-13T08:51:06.380Z,52.84
2019-03-13T08:52:16.684Z,52.14
2019-03-13T08:53:06.307Z,52.72
2019-03-13T08:54:06.295Z,51.10
2019-03-13T08:55:06.316Z,50.34
2019-03-13T08:56:06.273Z,51.31
2019-03-13T08:57:06.271Z,54.19
2019-03-13T08:58:06.296Z,54.72
2019-03-13T08:59:06.235Z,53.39
2019-03-13T09:00:06.300Z,52.84
2019-03-13T09:01:06.290Z,51.29
2019-03-13T09:02:06.241Z,48.58
2019-03-13T09:03:06.193Z,45.72
2019-03-13T09:04:06.205Z,45.78
2019-03-13T09:05:06.180Z,44.89
2019-03-13T09:06:06.195Z,45.92
2019-03-13T09:07:06.157Z,44.43
2019-03-13T09:08:06.138Z,44.01
2019-03-13T09:09:06.129Z,43.15
2019-03-13T09:10:06.159Z,43.04
2019-03-13T09:11:06.125Z,44.28
2019-03-13T09:12:06.097Z,48.71
2019-03-13T09:13:06.086Z,48.50
2019-03-13T09:14:06.082Z,45.42
2019-03-13T09:15:06.066Z,41.58
2019-03-13T09:16:06.050Z,44.47
2019-03-13T09:17:06.051Z,46.21
2019-03-13T09:18:06.035Z,47.99
2019-03-13T09:19:06.025Z,44.43
2019-03-13T09:20:06.007Z,45.69
2019-03-13T09:21:05.997Z,46.37
2019-03-13T09:22:06.018Z,41.66
2019-03-13T09:23:16.044Z,40.37
2019-03-13T09:24:05.966Z,38.14
2019-03-13T09:25:11.882Z,36.63
2019-03-13T09:26:06.945Z,36.21
2019-03-13T09:27:05.947Z,34.92
2019-03-13T09:28:05.987Z,35.49
2019-03-13T09:29:05.908Z,36.24
2019-03-13T09:30:05.896Z,34.30
2019-03-13T09:31:05.885Z,34.54
2019-03-13T09:32:05.879Z,37.95
2019-03-13T09:33:05.891Z,41.51
2019-03-13T09:34:05.892Z,43.18
2019-03-13T09:35:05.841Z,46.80
2019-03-13T09:36:05.832Z,48.92
2019-03-13T09:37:05.850Z,50.48
2019-03-13T09:38:05.810Z,50.55
2019-03-13T09:39:05.804Z,53.36
2019-03-13T09:40:05.802Z,55.94
2019-03-13T09:41:05.777Z,56.91
2019-03-13T09:42:05.776Z,59.19
2019-03-13T09:43:05.766Z,60.97
2019-03-13T09:44:05.800Z,60.52
2019-03-13T09:45:05.734Z,59.69
2019-03-13T09:46:05.763Z,59.66
2019-03-13T09:47:05.714Z,60.39
2019-03-13T09:48:05.713Z,59.63
2019-03-13T09:49:05.721Z,59.86
2019-03-13T09:50:05.696Z,59.53
2019-03-13T09:51:05.677Z,58.76
2019-03-13T09:52:05.676Z,59.08
2019-03-13T09:53:05.676Z,59.16
2019-03-13T09:54:15.861Z,58.11
2019-03-13T09:55:05.628Z,58.42
2019-03-13T09:56:05.659Z,59.24
2019-03-13T09:57:05.605Z,59.79
2019-03-13T09:58:05.618Z,61.97
2019-03-13T09:59:05.582Z,62.91
2019-03-13T10:00:05.576Z,63.17
2019-03-13T10:01:05.581Z,62.43
2019-03-13T10:02:05.580Z,61.78
2019-03-13T10:03:05.541Z,60.83
2019-03-13T10:04:05.526Z,60.94
2019-03-13T10:05:06.218Z,62.33
2019-03-13T10:06:05.543Z,62.96
2019-03-13T10:07:05.518Z,62.30
2019-03-13T10:08:05.535Z,61.78
2019-03-13T10:09:05.470Z,62.15
2019-03-13T10:10:05.467Z,63.33
2019-03-13T10:11:05.527Z,63.82
2019-03-13T10:12:05.447Z,63.59
2019-03-13T10:13:05.434Z,63.90
2019-03-13T10:14:05.438Z,63.17
2019-03-13T10:15:05.406Z,63.20
2019-03-13T10:16:05.391Z,63.20
2019-03-13T10:17:11.029Z,63.33
2019-03-13T10:18:06.380Z,63.85
2019-03-13T10:19:05.369Z,64.06
2019-03-13T10:20:05.358Z,63.96
2019-03-13T10:21:05.345Z,64.67
2019-03-13T10:22:05.331Z,64.22
2019-03-13T10:23:05.367Z,63.28
2019-03-13T10:24:05.309Z,63.09
2019-03-13T10:25:15.998Z,64.28
2019-03-13T10:26:05.285Z,65.11
2019-03-13T10:27:05.274Z,64.67
2019-03-13T10:28:05.266Z,63.98
2019-03-13T10:29:05.260Z,63.24
2019-03-13T10:30:05.260Z,62.75
2019-03-13T10:31:05.239Z,63.90
2019-03-13T10:32:05.220Z,64.90
2019-03-13T10:33:05.210Z,64.69
2019-03-13T10:34:05.227Z,64.90
2019-03-13T10:35:05.192Z,65.64
2019-03-13T10:36:05.177Z,65.26
2019-03-13T10:37:05.164Z,63.87
2019-03-13T10:38:13.934Z,63.48
2019-03-13T10:39:06.214Z,63.56
2019-03-13T10:40:05.137Z,63.67
2019-03-13T10:41:05.120Z,63.28
2019-03-13T10:42:05.114Z,63.28
2019-03-13T10:43:05.104Z,63.72
2019-03-13T10:44:05.092Z,63.93
2019-03-13T10:45:05.140Z,64.48
2019-03-13T10:46:05.071Z,66.24
2019-03-13T10:47:05.060Z,64.84
2019-03-13T10:48:05.045Z,65.47
2019-03-13T10:49:05.042Z,64.40
2019-03-13T10:50:05.024Z,63.90
2019-03-13T10:51:05.082Z,64.11
2019-03-13T10:52:05.008Z,64.01
2019-03-13T10:53:04.993Z,63.90
2019-03-13T10:54:04.986Z,64.11
2019-03-13T10:55:04.971Z,63.79
2019-03-13T10:56:15.820Z,63.93
2019-03-13T10:57:04.954Z,64.90
2019-03-13T10:58:04.944Z,64.53
2019-03-13T10:59:04.923Z,64.72
2019-03-13T11:00:04.913Z,66.30
2019-03-13T11:01:04.906Z,66.93
2019-03-13T11:02:04.918Z,66.82
2019-03-13T11:03:04.886Z,66.16
2019-03-13T11:04:04.869Z,65.32
2019-03-13T11:05:04.862Z,65.67
2019-03-13T11:06:04.866Z,66.46
2019-03-13T11:07:04.853Z,67.48
2019-03-13T11:08:04.862Z,68.43
2019-03-13T11:09:04.816Z,67.38
2019-03-13T11:10:04.809Z,66.61
2019-03-13T11:11:04.836Z,67.17
2019-03-13T11:12:04.783Z,67.14
2019-03-13T11:13:04.782Z,67.35
2019-03-13T11:14:15.728Z,67.80
2019-03-13T11:15:04.761Z,67.80
2019-03-13T11:16:04.738Z,67.97
2019-03-13T11:17:04.740Z,66.79
2019-03-13T11:18:04.720Z,67.21
2019-03-13T11:19:04.711Z,66.37
2019-03-13T11:20:04.742Z,67.63
2019-03-13T11:21:04.688Z,66.86
2019-03-13T11:22:04.683Z,66.69
2019-03-13T11:23:04.672Z,67.55
2019-03-13T11:24:04.659Z,68.43
2019-03-13T11:25:04.649Z,68.21
2019-03-13T11:26:04.697Z,68.32
2019-03-13T11:27:04.711Z,68.56
2019-03-13T11:28:04.612Z,68.53
2019-03-13T11:29:04.609Z,68.11
2019-03-13T11:30:04.597Z,67.58
2019-03-13T11:31:04.585Z,68.21
2019-03-13T11:32:04.610Z,68.21
2019-03-13T11:33:04.560Z,68.01
2019-03-13T11:34:04.552Z,67.90
2019-03-13T11:35:04.530Z,68.01
2019-03-13T11:36:04.521Z,67.87
2019-03-13T11:37:11.867Z,67.84
2019-03-13T11:38:04.506Z,67.69
2019-03-13T11:39:04.491Z,68.32
2019-03-13T11:40:04.479Z,68.71
2019-03-13T11:41:04.480Z,67.87
2019-03-13T11:42:04.468Z,68.18
2019-03-13T11:43:04.461Z,68.29
2019-03-13T11:44:04.437Z,68.92
2019-03-13T11:45:04.437Z,68.50
2019-03-13T11:46:04.418Z,68.85
2019-03-13T11:47:04.407Z,68.11
2019-03-13T11:48:04.411Z,68.88
2019-03-13T11:49:04.381Z,68.63
2019-03-13T11:50:04.379Z,68.92
2019-03-13T11:51:04.363Z,68.37
2019-03-13T11:52:04.354Z,67.55
2019-03-13T11:53:04.344Z,68.32
2019-03-13T11:54:04.380Z,68.63
2019-03-13T11:55:04.322Z,68.95
2019-03-13T11:56:04.327Z,68.77
2019-03-13T11:57:04.300Z,68.01
2019-03-13T11:58:04.289Z,68.53
2019-03-13T11:59:04.279Z,67.93
2019-03-13T12:00:04.320Z,68.28
2019-03-13T12:01:04.252Z,68.17
2019-03-13T12:02:04.240Z,68.17
2019-03-13T12:03:04.245Z,68.14
2019-03-13T12:04:04.222Z,68.17
2019-03-13T12:05:04.221Z,69.01
2019-03-13T12:06:04.229Z,69.12
2019-03-13T12:07:04.197Z,69.16
2019-03-13T12:08:14.515Z,68.56
2019-03-13T12:09:04.175Z,68.21
2019-03-13T12:10:04.163Z,68.70
2019-03-13T12:11:04.156Z,69.01
2019-03-13T12:12:04.150Z,68.98
2019-03-13T12:13:04.138Z,68.38
2019-03-13T12:14:04.115Z,68.59
2019-03-13T12:15:04.107Z,69.01
2019-03-13T12:16:04.128Z,69.12
2019-03-13T12:17:04.104Z,69.09
2019-03-13T12:18:04.076Z,68.56
2019-03-13T12:19:04.066Z,68.80
2019-03-13T12:20:04.054Z,68.70
2019-03-13T12:21:04.057Z,69.01
2019-03-13T12:22:04.041Z,68.91
2019-03-13T12:23:04.059Z,68.94
2019-03-13T12:24:04.006Z,70.20
2019-03-13T12:25:04.003Z,69.92
2019-03-13T12:26:03.990Z,70.20
2019-03-13T12:27:03.982Z,69.99
2019-03-13T12:28:03.980Z,69.26
2019-03-13T12:29:04.382Z,69.04
2019-03-13T12:30:03.947Z,69.89
2019-03-13T12:31:03.933Z,69.04
2019-03-13T12:32:03.925Z,69.46
2019-03-13T12:33:03.916Z,69.15
2019-03-13T12:34:03.903Z,70.09
2019-03-13T12:35:03.930Z,69.01
2019-03-13T12:36:03.884Z,69.09
2019-03-13T12:37:03.873Z,68.43
2019-03-13T12:38:03.858Z,68.35
2019-03-13T12:39:13.991Z,68.38
2019-03-13T12:40:03.835Z,68.38
2019-03-13T12:41:03.860Z,68.49
2019-03-13T12:42:03.819Z,69.30
2019-03-13T12:43:03.809Z,68.70
2019-03-13T12:44:03.798Z,69.01
2019-03-13T12:45:03.788Z,70.17
2019-03-13T12:46:03.779Z,68.91
2019-03-13T12:47:03.801Z,69.89
2019-03-13T12:48:15.853Z,70.28
2019-03-13T12:49:04.742Z,69.85
2019-03-13T12:50:03.736Z,70.31
2019-03-13T12:51:03.721Z,70.20
2019-03-13T12:52:03.716Z,70.41